Time;durP1;ratioP1;P1;durP2;ratioP2;P2;SDS_P1;SDS_P2;PMS_P1;PMS_P2;Temp;Humidity;BMP_temperature;BMP_pressure;BME280_temperature;BME280_humidity;BME280_pressure;Samples;Min_cycle;Max_cycle;Signal;HPM_P1;HPM_P2
2021/10/16 00:01:12;;;;;;;15.90;2.70;;;;;;;9.72;85.93;101851.63;10254382;28;20041;-69
2021/10/16 00:06:09;;;;;;;11.93;2.13;;;;;;;9.74;85.81;101868.53;10263668;28;20041;-67
2021/10/16 00:11:06;;;;;;;13.10;2.05;;;;;;;9.63;85.96;101869.72;10261738;28;20133;-69
2021/10/16 00:16:03;;;;;;;13.50;2.42;;;;;;;9.61;86.49;101872.75;10262463;28;20110;-69
2021/10/16 00:21:01;;;;;;;14.77;2.78;;;;;;;9.62;87.14;101877.09;10262709;28;20087;-68
2021/10/16 00:25:58;;;;;;;15.73;2.38;;;;;;;9.67;86.96;101881.69;10264755;28;20128;-67
2021/10/16 00:30:54;;;;;;;9.55;1.70;;;;;;;9.66;86.50;101869.16;10266280;28;20752;-68
2021/10/16 00:35:51;;;;;;;12.13;1.63;;;;;;;9.67;86.77;101878.97;10270677;28;20044;-69
2021/10/16 00:40:47;;;;;;;7.47;1.85;;;;;;;9.67;86.37;101877.06;10267099;28;20040;-69
2021/10/16 00:45:44;;;;;;;10.57;1.50;;;;;;;9.62;85.86;101879.00;10256929;28;20044;-68
2021/10/16 00:50:41;;;;;;;13.75;1.75;;;;;;;9.62;86.99;101879.00;10253063;28;20041;-69
2021/10/16 00:55:38;;;;;;;7.53;1.58;;;;;;;9.60;87.13;101881.22;10265739;28;20099;-68
2021/10/16 01:00:35;;;;;;;12.95;1.75;;;;;;;9.58;87.60;101889.66;10256867;28;20110;-67
2021/10/16 01:05:33;;;;;;;10.75;1.45;;;;;;;9.59;87.72;101887.78;10266428;28;20106;-67
2021/10/16 01:10:30;;;;;;;16.73;2.03;;;;;;;9.58;88.59;101883.41;10262197;28;20048;-67
2021/10/16 01:15:27;;;;;;;9.23;1.52;;;;;;;9.48;88.48;101878.81;10263097;28;20068;-67
2021/10/16 01:20:24;;;;;;;8.45;1.38;;;;;;;9.52;88.93;101874.44;10259512;28;20052;-67
2021/10/16 01:25:23;;;;;;;8.38;1.50;;;;;;;9.59;89.39;101874.94;10255192;28;20048;-67
2021/10/16 01:30:22;;;;;;;14.63;2.35;;;;;;;9.54;88.37;101880.44;10254792;28;20330;-67
2021/10/16 01:35:18;;;;;;;7.25;1.50;;;;;;;9.62;88.36;101868.09;10257314;28;20068;-68
2021/10/16 01:40:15;;;;;;;13.52;2.15;;;;;;;9.57;88.16;101881.78;10246372;28;20099;-68
2021/10/16 01:45:14;;;;;;;12.98;1.98;;;;;;;9.56;87.99;101889.16;10256668;28;20056;-68
2021/10/16 01:50:14;;;;;;;11.18;1.70;;;;;;;9.51;87.54;101883.72;10244935;28;20391;-67
2021/10/16 01:55:11;;;;;;;12.40;1.80;;;;;;;9.43;88.11;101882.41;10249888;28;20481;-68
2021/10/16 02:00:09;;;;;;;10.65;2.20;;;;;;;9.41;88.34;101879.13;10242149;28;20440;-68
2021/10/16 02:05:06;;;;;;;9.93;1.83;;;;;;;9.37;89.11;101874.50;10266713;28;20072;-68
2021/10/16 02:10:03;;;;;;;10.48;1.70;;;;;;;9.29;90.09;101880.56;10263565;28;20056;-69
2021/10/16 02:14:59;;;;;;;12.38;2.30;;;;;;;9.23;90.64;101882.50;10261406;28;20103;-68
2021/10/16 02:19:56;;;;;;;11.35;2.40;;;;;;;9.16;92.49;101882.00;10255270;28;20088;-68
2021/10/16 02:24:52;;;;;;;10.65;2.53;;;;;;;9.22;91.77;101887.16;10255525;28;20054;-69
2021/10/16 02:29:49;;;;;;;16.00;3.22;;;;;;;9.27;91.74;101886.31;10263939;28;20045;-68
2021/10/16 02:34:45;;;;;;;10.93;2.80;;;;;;;9.27;91.88;101887.13;10270043;28;20037;-68
2021/10/16 02:39:42;;;;;;;13.73;3.67;;;;;;;9.16;92.15;101888.25;10254632;28;20114;-68
2021/10/16 02:44:38;;;;;;;16.42;3.40;;;;;;;9.26;92.50;101887.41;10273355;28;20053;-68
2021/10/16 02:49:35;;;;;;;12.48;3.00;;;;;;;9.26;92.69;101892.88;10269150;28;20084;-68
2021/10/16 02:54:32;;;;;;;10.13;2.90;;;;;;;9.25;92.09;101896.69;10256861;28;20503;-68
2021/10/16 02:59:28;;;;;;;10.45;3.03;;;;;;;9.31;91.73;101895.56;10274729;28;20137;-68
2021/10/16 03:04:24;;;;;;;10.80;2.90;;;;;;;9.33;91.17;101903.47;10272472;28;20061;-69
2021/10/16 03:09:21;;;;;;;11.20;2.85;;;;;;;9.33;91.08;101901.56;10271531;28;20041;-69
2021/10/16 03:14:17;;;;;;;11.25;2.63;;;;;;;9.33;91.55;101893.38;10256018;28;20045;-69
2021/10/16 03:19:14;;;;;;;10.27;2.55;;;;;;;9.32;91.64;101896.38;10255662;28;20092;-70
2021/10/16 03:24:10;;;;;;;14.63;2.78;;;;;;;9.32;91.62;101890.91;10267829;28;20095;-68
2021/10/16 03:29:07;;;;;;;11.30;2.83;;;;;;;9.31;91.29;101901.03;10256422;28;20041;-68
2021/10/16 03:34:03;;;;;;;8.30;2.45;;;;;;;9.29;91.47;101902.41;10264798;28;20076;-67
2021/10/16 03:39:00;;;;;;;11.55;2.83;;;;;;;9.14;91.72;101895.09;10256136;28;20038;-67
2021/10/16 03:43:56;;;;;;;14.32;3.53;;;;;;;9.19;91.38;101914.16;10259554;28;20107;-67
2021/10/16 03:48:53;;;;;;;15.32;2.70;;;;;;;9.15;92.35;101913.09;10262450;28;20041;-69
2021/10/16 03:53:49;;;;;;;13.00;2.55;;;;;;;9.16;93.04;101904.63;10270314;28;20526;-69
2021/10/16 03:58:46;;;;;;;10.80;2.70;;;;;;;9.12;92.94;101891.81;10264290;28;20136;-69
2021/10/16 04:03:42;;;;;;;10.00;2.10;;;;;;;9.08;93.20;101883.38;10259506;28;20071;-69
2021/10/16 04:08:39;;;;;;;11.73;2.55;;;;;;;9.03;92.46;101897.88;10253604;28;20443;-68
2021/10/16 04:13:35;;;;;;;9.95;2.40;;;;;;;8.97;93.76;101890.78;10251230;28;20136;-68
2021/10/16 04:18:32;;;;;;;16.42;2.90;;;;;;;8.94;92.78;101896.81;10253946;28;20045;-69
2021/10/16 04:23:28;;;;;;;10.93;3.00;;;;;;;8.93;93.76;101895.16;10259861;28;20695;-67
2021/10/16 04:28:25;;;;;;;19.30;3.72;;;;;;;8.87;93.26;101896.28;10256868;28;20515;-67
2021/10/16 04:33:21;;;;;;;18.27;3.70;;;;;;;8.82;94.00;101899.03;10249412;28;20451;-67
2021/10/16 04:38:18;;;;;;;10.50;3.00;;;;;;;8.77;93.38;101896.28;10264336;28;20064;-70
2021/10/16 04:43:14;;;;;;;9.57;3.13;;;;;;;8.82;93.36;101882.66;10262112;28;20408;-69
2021/10/16 04:48:11;;;;;;;11.90;2.88;;;;;;;8.85;93.34;101887.56;10261261;28;20049;-69
2021/10/16 04:53:08;;;;;;;14.43;2.80;;;;;;;8.82;92.63;101890.84;10258646;28;20139;-67
2021/10/16 04:58:04;;;;;;;15.93;2.85;;;;;;;8.78;93.36;101893.31;10261564;28;20057;-67
2021/10/16 05:03:01;;;;;;;8.88;2.55;;;;;;;8.81;93.00;101894.66;10253030;28;20081;-67
2021/10/16 05:07:57;;;;;;;8.48;2.20;;;;;;;8.79;93.48;101889.47;10254640;28;20045;-67
2021/10/16 05:12:55;;;;;;;13.93;2.20;;;;;;;8.74;93.29;101891.41;10255472;28;20098;-69
2021/10/16 05:17:53;;;;;;;9.00;2.30;;;;;;;8.73;93.51;101892.50;10256050;28;20040;-69
2021/10/16 05:22:49;;;;;;;11.68;2.95;;;;;;;8.76;92.91;101890.03;10268849;28;20084;-68
2021/10/16 05:27:49;;;;;;;15.45;2.55;;;;;;;8.69;92.87;101900.41;10268996;28;20095;-68
2021/10/16 05:32:45;;;;;;;15.55;3.20;;;;;;;8.61;92.95;101899.06;10270124;28;20041;-68
2021/10/16 05:37:45;;;;;;;10.73;2.83;;;;;;;8.60;91.96;101897.44;10257217;28;20568;-68
2021/10/16 05:42:41;;;;;;;9.65;1.88;;;;;;;8.56;92.23;101901.81;10251721;28;20140;-68
2021/10/16 05:47:38;;;;;;;9.82;3.63;;;;;;;8.49;92.19;101900.44;10258021;28;20072;-68
2021/10/16 05:52:35;;;;;;;13.93;3.03;;;;;;;8.42;92.50;101901.56;10260132;28;20140;-68
2021/10/16 05:57:32;;;;;;;10.15;2.65;;;;;;;8.40;92.01;101914.66;10257150;28;20057;-70
2021/10/16 06:02:29;;;;;;;10.35;3.40;;;;;;;8.35;92.51;101924.69;10266683;28;20048;-69
2021/10/16 06:07:25;;;;;;;8.30;2.53;;;;;;;8.39;93.11;101923.06;10270136;28;20468;-72
2021/10/16 06:12:22;;;;;;;11.35;2.50;;;;;;;8.35;92.69;101938.31;10260741;28;20984;-69
2021/10/16 06:17:18;;;;;;;11.43;2.75;;;;;;;8.38;92.08;101933.16;10257708;28;20057;-71
2021/10/16 06:22:15;;;;;;;13.20;3.92;;;;;;;8.37;92.11;101941.59;10256770;28;20130;-69
2021/10/16 06:27:11;;;;;;;7.68;2.20;;;;;;;8.33;92.97;101945.94;10255243;28;20084;-69
2021/10/16 06:32:08;;;;;;;9.77;2.28;;;;;;;8.39;92.65;101944.84;10255960;28;20075;-69
2021/10/16 06:37:04;;;;;;;9.75;2.50;;;;;;;8.48;92.22;101954.16;10259690;28;20110;-69
2021/10/16 06:42:03;;;;;;;9.63;2.42;;;;;;;8.57;92.09;101957.97;10261793;28;20171;-69
2021/10/16 06:46:59;;;;;;;12.68;2.65;;;;;;;8.63;91.86;101959.59;10262904;28;20120;-70
2021/10/16 06:51:56;;;;;;;14.63;3.40;;;;;;;8.71;91.11;101971.03;10264745;28;20046;-69
2021/10/16 06:56:53;;;;;;;13.30;2.70;;;;;;;8.75;91.58;101980.28;10260038;28;20372;-70
2021/10/16 07:01:49;;;;;;;11.27;2.33;;;;;;;8.76;90.08;101976.47;10248611;28;20585;-72
2021/10/16 07:06:48;;;;;;;7.13;2.38;;;;;;;8.79;90.23;101981.38;10261408;28;20545;-74
2021/10/16 07:11:44;;;;;;;10.80;2.25;;;;;;;8.85;89.84;101991.19;10244881;28;20115;-74
2021/10/16 07:16:43;;;;;;;8.35;2.33;;;;;;;8.87;89.53;101993.66;10244802;28;20048;-71
2021/10/16 07:21:39;;;;;;;9.55;2.40;;;;;;;8.95;89.26;101996.63;10248119;28;20045;-71
2021/10/16 07:26:38;;;;;;;7.88;1.92;;;;;;;9.06;88.68;101998.25;10259247;28;20069;-74
2021/10/16 07:31:35;;;;;;;10.88;2.42;;;;;;;9.15;88.01;101984.06;10258220;28;20183;-73
2021/10/16 07:36:34;;;;;;;7.75;1.90;;;;;;;9.20;88.29;101994.94;10265495;28;20072;-75
2021/10/16 07:41:32;;;;;;;11.52;2.05;;;;;;;9.27;87.64;101992.75;10268255;28;20076;-73
2021/10/16 07:46:30;;;;;;;11.27;2.72;;;;;;;9.25;87.33;101989.47;10266507;28;20049;-74
2021/10/16 07:51:27;;;;;;;10.00;1.77;;;;;;;9.32;86.32;101992.72;10254357;28;20103;-73
2021/10/16 07:56:24;;;;;;;9.80;2.85;;;;;;;9.41;85.63;101999.25;10263538;28;20103;-75
2021/10/16 08:01:20;;;;;;;10.18;2.08;;;;;;;9.44;84.72;102006.88;10255201;28;20044;-75
2021/10/16 08:06:17;;;;;;;11.23;2.15;;;;;;;9.36;84.43;102007.44;10265391;28;20132;-75
2021/10/16 08:11:13;;;;;;;8.55;1.80;;;;;;;9.44;84.46;102008.78;10265434;28;20085;-74
2021/10/16 08:16:10;;;;;;;6.63;2.17;;;;;;;9.41;83.37;102012.88;10274384;28;20045;-75
2021/10/16 08:21:06;;;;;;;7.53;2.10;;;;;;;9.55;83.48;102020.50;10256281;28;20469;-75
2021/10/16 08:26:03;;;;;;;9.55;2.42;;;;;;;9.59;83.70;102003.28;10256701;28;20518;-69
2021/10/16 08:31:01;;;;;;;10.30;2.20;;;;;;;9.65;83.18;102020.44;10246002;28;20522;-73
2021/10/16 08:35:57;;;;;;;12.20;3.25;;;;;;;9.75;83.56;102017.69;10268677;28;20147;-73
2021/10/16 08:40:54;;;;;;;11.23;2.75;;;;;;;9.77;82.35;102017.38;10264104;28;20092;-72
2021/10/16 08:45:51;;;;;;;9.02;2.92;;;;;;;9.95;82.07;102013.19;10255325;28;20564;-74
2021/10/16 08:50:49;;;;;;;9.50;2.45;;;;;;;10.00;81.29;102015.91;10262870;28;20041;-73
2021/10/16 08:55:52;;;;;;;13.43;3.45;;;;;;;10.00;81.20;102022.19;10255297;28;20102;-73
2021/10/16 09:00:54;;;;;;;16.55;3.53;;;;;;;10.01;79.73;102023.00;10267270;28;20047;-74
2021/10/16 09:06:11;;;;;;;12.63;2.95;;;;;;;10.15;80.15;102032.22;10256697;28;20407;-74
2021/10/16 09:11:21;;;;;;;8.75;1.92;;;;;;;10.27;80.23;102034.59;10262918;28;20137;-71
2021/10/16 09:16:29;;;;;;;12.80;2.80;;;;;;;10.32;79.12;102029.13;10254903;28;20049;-73
2021/10/16 09:21:28;;;;;;;11.00;3.10;;;;;;;10.42;78.32;102030.97;10251654;28;20048;-72
2021/10/16 09:26:25;;;;;;;10.20;2.50;;;;;;;10.49;77.57;102024.09;10244063;28;20103;-72
2021/10/16 09:31:21;;;;;;;6.43;1.98;;;;;;;10.54;77.65;102020.50;10253621;28;20079;-71
2021/10/16 09:36:22;;;;;;;8.63;1.73;;;;;;;10.69;77.04;102023.09;10253096;28;20075;-73
2021/10/16 09:41:25;;;;;;;9.25;1.73;;;;;;;10.62;75.96;102027.25;10246998;28;20108;-73
2021/10/16 09:46:23;;;;;;;6.77;2.10;;;;;;;10.65;75.71;102030.25;10247111;28;20122;-73
2021/10/16 09:51:21;;;;;;;9.18;1.80;;;;;;;10.86;75.65;102027.31;10247335;28;20077;-74
2021/10/16 09:56:18;;;;;;;8.82;2.83;;;;;;;10.85;74.76;102026.50;10243853;28;20046;-74
2021/10/16 10:01:14;;;;;;;9.55;1.60;;;;;;;10.82;74.50;102039.97;10243347;28;20204;-74
2021/10/16 10:06:16;;;;;;;7.45;1.45;;;;;;;10.84;73.81;102032.28;10237469;28;20388;-73
2021/10/16 10:11:15;;;;;;;7.80;2.25;;;;;;;10.82;73.34;102034.50;10256271;28;20056;-73
2021/10/16 10:16:11;;;;;;;6.22;2.20;;;;;;;11.05;73.82;102036.47;10251121;28;20083;-74
2021/10/16 10:21:36;;;;;;;9.23;2.08;;;;;;;11.32;72.45;102029.59;10256156;28;20045;-71
2021/10/16 10:26:40;;;;;;;8.98;1.60;;;;;;;11.24;72.75;102033.78;10252045;28;20060;-72
2021/10/16 10:31:45;;;;;;;9.60;1.83;;;;;;;11.44;73.35;102021.81;10252495;28;20064;-72
2021/10/16 10:36:44;;;;;;;6.55;1.65;;;;;;;11.59;72.33;102018.06;10251189;28;20037;-71
2021/10/16 10:41:40;;;;;;;5.75;1.55;;;;;;;11.60;69.75;102019.69;10253463;28;20461;-72
2021/10/16 10:46:37;;;;;;;13.88;2.03;;;;;;;11.34;69.40;102024.66;10262399;28;20049;-72
2021/10/16 10:51:38;;;;;;;13.32;2.10;;;;;;;11.42;70.72;102017.72;10257461;28;20041;-72
2021/10/16 10:56:40;;;;;;;11.55;1.75;;;;;;;11.61;70.07;102026.00;10259047;28;20041;-71
2021/10/16 11:01:50;;;;;;;7.22;1.48;;;;;;;11.76;69.02;102023.03;10253490;28;20084;-71
2021/10/16 11:06:58;;;;;;;9.02;1.77;;;;;;;11.80;68.86;102008.47;10267118;28;20044;-71
2021/10/16 11:11:54;;;;;;;10.63;1.73;;;;;;;11.87;67.82;102008.13;10248200;28;20783;-72
2021/10/16 11:17:00;;;;;;;6.00;1.60;;;;;;;11.90;67.47;102002.06;10259628;28;20132;-70
2021/10/16 11:21:58;;;;;;;8.52;1.65;;;;;;;11.96;68.02;102000.06;10262205;28;20056;-71
2021/10/16 11:26:59;;;;;;;8.00;1.80;;;;;;;11.87;67.93;102002.66;10249335;28;20085;-71
2021/10/16 11:32:10;;;;;;;7.60;1.50;;;;;;;11.98;68.44;102004.16;10252680;28;20047;-71
2021/10/16 11:37:06;;;;;;;10.13;1.60;;;;;;;11.93;67.95;101996.00;10264557;28;20049;-73
2021/10/16 11:42:03;;;;;;;6.68;1.30;;;;;;;12.00;67.39;101990.97;10264354;28;20133;-73
2021/10/16 11:47:02;;;;;;;11.93;2.28;;;;;;;11.90;67.82;101985.59;10259388;28;20057;-72
2021/10/16 11:51:59;;;;;;;7.45;1.45;;;;;;;12.10;66.78;101981.75;10259178;28;20038;-73
2021/10/16 11:56:57;;;;;;;8.77;1.80;;;;;;;12.11;66.33;101985.31;10264130;28;20073;-73
2021/10/16 12:01:54;;;;;;;11.23;1.65;;;;;;;12.00;64.58;101988.22;10256137;28;20495;-73
2021/10/16 12:06:50;;;;;;;7.15;1.77;;;;;;;11.95;64.58;101966.38;10257091;28;20515;-73
2021/10/16 12:11:47;;;;;;;7.90;2.00;;;;;;;11.98;63.86;101965.78;10259052;28;20114;-72
2021/10/16 12:16:47;;;;;;;4.20;1.23;;;;;;;12.26;63.95;101957.66;10254651;28;20045;-71
2021/10/16 12:21:46;;;;;;;6.15;1.50;;;;;;;12.62;61.08;101959.81;10243566;28;20050;-73
2021/10/16 12:26:46;;;;;;;6.22;1.65;;;;;;;12.85;60.63;101956.06;10259696;28;20053;-73
2021/10/16 12:31:51;;;;;;;11.07;1.88;;;;;;;12.74;59.93;101959.31;10257746;28;20485;-73
2021/10/16 12:36:52;;;;;;;6.75;1.70;;;;;;;12.45;57.70;101967.78;10259149;28;20080;-72
2021/10/16 12:41:48;;;;;;;5.30;1.42;;;;;;;12.40;59.44;101961.28;10253548;28;20132;-72
2021/10/16 12:47:06;;;;;;;14.02;1.70;;;;;;;12.18;58.34;101955.59;10248220;28;20408;-73
2021/10/16 12:52:23;;;;;;;9.82;2.22;;;;;;;12.09;59.05;101960.97;10247628;28;20071;-71
2021/10/16 12:57:21;;;;;;;8.18;1.52;;;;;;;12.02;59.20;101954.19;10264544;28;20049;-72
2021/10/16 13:02:18;;;;;;;4.97;1.40;;;;;;;11.86;58.00;101956.31;10254535;28;20107;-73
2021/10/16 13:07:16;;;;;;;6.43;1.55;;;;;;;11.76;59.32;101958.09;10258368;28;20041;-73
2021/10/16 13:12:14;;;;;;;8.45;1.63;;;;;;;11.57;59.09;101955.34;10252682;28;20572;-72
2021/10/16 13:17:10;;;;;;;8.35;1.83;;;;;;;11.63;59.83;101952.53;10256777;28;20056;-70
2021/10/16 13:22:07;;;;;;;5.15;1.40;;;;;;;11.57;60.39;101949.88;10258424;28;20045;-72
2021/10/16 13:27:04;;;;;;;7.30;1.45;;;;;;;11.56;59.59;101947.44;10250461;28;20521;-72
2021/10/16 13:32:00;;;;;;;7.75;1.35;;;;;;;11.49;60.01;101952.47;10257648;28;20046;-72
2021/10/16 13:36:57;;;;;;;8.80;1.30;;;;;;;11.55;60.51;101935.63;10268737;28;20041;-72
2021/10/16 13:41:54;;;;;;;4.88;1.02;;;;;;;11.47;60.03;101932.78;10256164;28;20046;-71
2021/10/16 13:46:50;;;;;;;9.30;1.55;;;;;;;11.64;60.00;101932.25;10251294;28;20053;-72
2021/10/16 13:51:47;;;;;;;6.25;1.15;;;;;;;11.71;59.56;101932.69;10253381;28;20525;-74
2021/10/16 13:56:44;;;;;;;5.57;1.13;;;;;;;11.77;59.51;101924.13;10250373;28;20072;-74
2021/10/16 14:01:40;;;;;;;7.53;2.05;;;;;;;11.76;59.66;101924.41;10245762;28;20818;-70
2021/10/16 14:06:37;;;;;;;10.13;1.75;;;;;;;11.88;60.20;101924.00;10242025;28;20045;-72
2021/10/16 14:11:33;;;;;;;8.50;1.80;;;;;;;11.91;58.69;101910.53;10258809;28;20042;-72
2021/10/16 14:16:30;;;;;;;9.00;1.75;;;;;;;12.11;58.61;101914.03;10254645;28;20075;-72
2021/10/16 14:21:26;;;;;;;8.55;1.80;;;;;;;12.24;57.86;101910.53;10246287;28;20430;-72
2021/10/16 14:26:23;;;;;;;8.88;1.85;;;;;;;12.26;56.18;101905.56;10250868;28;20075;-74
2021/10/16 14:31:19;;;;;;;7.38;1.77;;;;;;;12.20;55.62;101906.75;10250986;28;20044;-70
2021/10/16 14:36:16;;;;;;;11.60;1.63;;;;;;;12.08;55.50;101909.16;10255371;28;20046;-71
2021/10/16 14:41:12;;;;;;;8.90;2.58;;;;;;;12.12;56.48;101904.72;10252673;28;20359;-72
2021/10/16 14:46:09;;;;;;;9.52;1.70;;;;;;;12.02;55.31;101904.88;10257066;28;20633;-72
2021/10/16 14:51:06;;;;;;;5.70;1.83;;;;;;;11.96;55.27;101890.44;10261531;28;20049;-72
2021/10/16 14:56:03;;;;;;;10.00;1.70;;;;;;;12.02;57.01;101882.94;10264810;28;20042;-71
2021/10/16 15:00:59;;;;;;;5.88;1.77;;;;;;;12.05;55.91;101882.34;10253913;28;20041;-72
2021/10/16 15:05:56;;;;;;;8.95;1.85;;;;;;;11.93;55.50;101886.38;10247078;28;20155;-74
2021/10/16 15:10:55;;;;;;;10.77;1.88;;;;;;;11.82;56.22;101890.34;10248110;28;20403;-72
2021/10/16 15:15:51;;;;;;;8.35;1.83;;;;;;;11.76;57.46;101897.00;10259516;28;20057;-73
2021/10/16 15:20:48;;;;;;;13.10;2.13;;;;;;;11.75;58.23;101885.25;10247655;28;20439;-73
2021/10/16 15:25:45;;;;;;;7.72;1.30;;;;;;;11.71;58.54;101899.81;10247339;28;20048;-73
2021/10/16 15:30:42;;;;;;;10.43;2.17;;;;;;;11.42;59.65;101898.06;10257906;28;20134;-73
2021/10/16 15:35:39;;;;;;;11.90;2.42;;;;;;;11.42;60.18;101906.25;10257363;28;20092;-73
2021/10/16 15:40:35;;;;;;;7.40;2.13;;;;;;;11.39;60.34;101898.63;10257980;28;20041;-73
2021/10/16 15:45:32;;;;;;;9.60;1.90;;;;;;;11.22;60.62;101898.31;10258015;28;20102;-70
2021/10/16 15:50:30;;;;;;;10.30;1.90;;;;;;;11.16;60.98;101898.38;10256639;28;20123;-68
2021/10/16 15:55:26;;;;;;;6.97;1.80;;;;;;;11.05;60.85;101904.28;10260625;28;20084;-72
2021/10/16 16:00:23;;;;;;;6.03;1.52;;;;;;;11.00;60.96;101909.78;10267679;28;20041;-72
2021/10/16 16:05:19;;;;;;;7.95;2.00;;;;;;;10.92;61.43;101906.59;10261462;28;20475;-71
2021/10/16 16:10:16;;;;;;;6.95;2.08;;;;;;;10.86;62.06;101924.19;10262458;28;20624;-73
2021/10/16 16:15:12;;;;;;;8.85;1.98;;;;;;;10.94;61.58;101925.47;10262668;28;20098;-72
2021/10/16 16:20:10;;;;;;;8.55;2.00;;;;;;;10.96;61.78;101923.25;10244857;28;20660;-72
2021/10/16 16:25:08;;;;;;;15.88;2.28;;;;;;;10.92;62.29;101930.41;10262374;28;20049;-71
2021/10/16 16:30:06;;;;;;;7.40;1.60;;;;;;;10.87;61.49;101925.81;10258523;28;20047;-71
2021/10/16 16:35:03;;;;;;;9.98;2.08;;;;;;;10.83;61.43;101923.94;10251342;28;20118;-72
2021/10/16 16:40:00;;;;;;;7.35;2.35;;;;;;;10.77;61.96;101917.72;10260508;28;20075;-71
2021/10/16 16:44:56;;;;;;;16.08;2.25;;;;;;;10.74;61.66;101916.38;10246609;28;20515;-71
2021/10/16 16:49:53;;;;;;;11.65;2.55;;;;;;;10.90;61.51;101921.66;10252086;28;20666;-71
2021/10/16 16:54:49;;;;;;;5.68;1.33;;;;;;;10.85;59.86;101916.25;10240783;28;20069;-71
2021/10/16 16:59:46;;;;;;;9.27;2.60;;;;;;;10.83;60.15;101913.81;10255944;28;20057;-71
2021/10/16 17:04:43;;;;;;;9.15;1.80;;;;;;;10.85;59.12;101913.53;10240503;28;20037;-70
2021/10/16 17:09:39;;;;;;;7.22;1.90;;;;;;;10.79;59.26;101914.66;10253522;28;20061;-71
2021/10/16 17:14:44;;;;;;;8.50;2.90;;;;;;;10.83;60.16;101913.00;10255462;28;20514;-71
2021/10/16 17:19:40;;;;;;;7.18;2.15;;;;;;;10.83;58.21;101902.03;10252186;28;20052;-70
2021/10/16 17:24:37;;;;;;;5.72;1.73;;;;;;;10.82;58.03;101901.25;10264911;28;20068;-71
2021/10/16 17:29:40;;;;;;;6.05;1.58;;;;;;;10.83;58.34;101902.03;10248026;28;20040;-71
2021/10/16 17:34:39;;;;;;;13.85;2.70;;;;;;;10.76;58.63;101896.91;10251892;28;20102;-72
2021/10/16 17:39:35;;;;;;;9.50;2.33;;;;;;;10.67;58.95;101885.78;10240846;28;20068;-72
2021/10/16 17:44:32;;;;;;;11.23;2.53;;;;;;;10.63;59.21;101884.75;10247185;28;20059;-70
2021/10/16 17:49:28;;;;;;;9.85;2.63;;;;;;;10.66;59.62;101892.38;10241802;28;21926;-71
2021/10/16 17:54:45;;;;;;;13.13;3.45;;;;;;;10.62;60.21;101888.59;10249717;28;20032;-71
2021/10/16 17:59:41;;;;;;;8.57;2.88;;;;;;;10.64;61.80;101885.56;10255976;28;20055;-71
2021/10/16 18:04:38;;;;;;;6.15;2.25;;;;;;;10.59;61.09;101874.69;10254461;28;20098;-71
2021/10/16 18:09:35;;;;;;;7.10;2.17;;;;;;;10.49;60.64;101887.34;10254500;28;20106;-71
2021/10/16 18:14:31;;;;;;;10.82;2.88;;;;;;;10.50;61.42;101888.16;10249988;28;20091;-71
2021/10/16 18:19:28;;;;;;;11.02;3.10;;;;;;;10.39;61.50;101887.44;10237299;28;20522;-71
2021/10/16 18:24:25;;;;;;;9.13;3.35;;;;;;;10.41;61.73;101884.44;10257200;28;20067;-71
2021/10/16 18:29:21;;;;;;;9.90;2.63;;;;;;;10.43;61.53;101893.97;10252519;28;20107;-71
2021/10/16 18:34:17;;;;;;;9.55;2.78;;;;;;;10.38;61.65;101885.81;10244976;28;20037;-71
2021/10/16 18:39:14;;;;;;;6.95;2.22;;;;;;;10.44;61.49;101878.38;10248107;28;20071;-71
2021/10/16 18:44:10;;;;;;;11.68;3.30;;;;;;;10.40;61.53;101877.34;10251774;28;20141;-71
2021/10/16 18:49:07;;;;;;;6.22;2.20;;;;;;;10.45;61.60;101880.84;10262709;28;20080;-72
2021/10/16 18:54:04;;;;;;;10.98;3.85;;;;;;;10.45;62.26;101874.56;10244443;28;20128;-71
2021/10/16 18:59:04;;;;;;;8.30;2.95;;;;;;;10.48;62.16;101868.50;10248209;28;20084;-70
2021/10/16 19:04:01;;;;;;;8.40;2.30;;;;;;;10.44;61.74;101868.28;10243400;28;20033;-71
2021/10/16 19:08:57;;;;;;;9.20;3.88;;;;;;;10.43;61.85;101868.56;10248528;28;20364;-72
2021/10/16 19:13:54;;;;;;;13.55;6.40;;;;;;;10.41;61.71;101876.22;10250381;28;20041;-72
2021/10/16 19:18:51;;;;;;;7.38;2.53;;;;;;;10.39;62.14;101875.69;10264045;28;21209;-72
2021/10/16 19:23:47;;;;;;;7.65;2.03;;;;;;;10.30;60.99;101873.59;10262508;28;20128;-72
2021/10/16 19:28:44;;;;;;;9.25;2.78;;;;;;;10.32;61.42;101876.03;10264526;28;20075;-73
2021/10/16 19:33:42;;;;;;;6.78;2.10;;;;;;;10.31;61.60;101875.22;10256412;28;20072;-72
2021/10/16 19:38:46;;;;;;;7.97;1.75;;;;;;;10.25;61.01;101865.41;10262191;28;20140;-72
2021/10/16 19:43:43;;;;;;;6.85;1.92;;;;;;;10.21;61.20;101864.38;10262056;28;20160;-72
2021/10/16 19:48:41;;;;;;;10.48;2.58;;;;;;;10.22;61.33;101859.69;10251899;28;20576;-72
2021/10/16 19:53:38;;;;;;;9.57;1.80;;;;;;;10.19;60.94;101855.63;10248992;28;20060;-72
2021/10/16 19:58:34;;;;;;;12.52;2.30;;;;;;;10.20;61.04;101854.50;10252750;28;20052;-72
2021/10/16 20:03:31;;;;;;;8.15;2.40;;;;;;;10.24;59.99;101858.31;10243166;28;20041;-71
2021/10/16 20:08:28;;;;;;;9.45;2.13;;;;;;;10.25;60.27;101865.41;10247122;28;20056;-71
2021/10/16 20:13:27;;;;;;;6.63;2.10;;;;;;;10.22;60.30;101871.44;10254171;28;20053;-71
2021/10/16 20:18:24;;;;;;;11.27;2.10;;;;;;;10.30;60.53;101868.13;10254265;28;20243;-71
2021/10/16 20:23:22;;;;;;;9.27;2.15;;;;;;;10.20;60.19;101870.09;10239201;28;20099;-71
2021/10/16 20:28:20;;;;;;;8.32;2.25;;;;;;;10.24;59.72;101868.44;10237612;28;20170;-72
2021/10/16 20:33:17;;;;;;;13.32;2.53;;;;;;;10.22;59.45;101865.97;10253562;28;20568;-72
2021/10/16 20:38:14;;;;;;;11.05;1.80;;;;;;;10.23;59.59;101862.13;10251137;28;20046;-71
2021/10/16 20:43:11;;;;;;;7.60;1.77;;;;;;;10.28;59.61;101853.94;10250199;28;20052;-72
2021/10/16 20:48:08;;;;;;;11.77;2.30;;;;;;;10.29;60.85;101843.81;10250347;28;20515;-71
2021/10/16 20:53:04;;;;;;;9.80;1.92;;;;;;;10.23;61.08;101853.94;10262626;28;20069;-71
2021/10/16 20:58:01;;;;;;;6.05;1.90;;;;;;;10.28;60.15;101843.00;10261064;28;20037;-73
2021/10/16 21:02:57;;;;;;;9.93;2.05;;;;;;;10.24;60.53;101833.72;10250370;28;20079;-71
2021/10/16 21:07:54;;;;;;;5.93;1.63;;;;;;;10.19;60.77;101828.31;10243353;28;20053;-73
2021/10/16 21:12:51;;;;;;;8.50;1.83;;;;;;;10.18;61.15;101837.59;10246532;28;20048;-72
2021/10/16 21:17:48;;;;;;;6.95;1.70;;;;;;;10.11;60.71;101837.91;10254755;28;20045;-71
2021/10/16 21:22:44;;;;;;;8.93;1.52;;;;;;;10.08;60.51;101837.69;10258997;28;20642;-69
2021/10/16 21:27:44;;;;;;;11.45;1.77;;;;;;;10.03;60.47;101835.00;10266509;28;20549;-68
2021/10/16 21:32:41;;;;;;;10.82;1.80;;;;;;;10.03;60.97;101829.53;10261261;28;20639;-69
2021/10/16 21:37:38;;;;;;;11.27;2.38;;;;;;;9.99;60.86;101839.41;10249376;28;20080;-69
2021/10/16 21:42:34;;;;;;;9.13;2.28;;;;;;;9.98;60.37;101826.84;10262172;28;20072;-69
2021/10/16 21:47:31;;;;;;;12.18;1.85;;;;;;;9.97;61.01;101825.22;10259493;28;20565;-69
2021/10/16 21:52:28;;;;;;;6.45;1.73;;;;;;;9.90;61.06;101842.75;10253423;28;20045;-69
2021/10/16 21:57:25;;;;;;;10.10;2.25;;;;;;;9.92;60.90;101833.47;10262087;28;20094;-70
2021/10/16 22:02:22;;;;;;;7.38;1.88;;;;;;;9.83;61.35;101814.94;10250326;28;20454;-69
2021/10/16 22:07:19;;;;;;;11.30;2.47;;;;;;;9.81;61.02;101833.53;10258169;28;20049;-69
2021/10/16 22:12:16;;;;;;;12.45;2.30;;;;;;;9.95;61.23;101824.69;10246359;28;20076;-69
2021/10/16 22:17:12;;;;;;;8.82;2.03;;;;;;;9.94;62.03;101814.88;10254294;28;20052;-69
2021/10/16 22:22:09;;;;;;;10.60;2.28;;;;;;;9.95;61.39;101827.41;10253397;28;20083;-70
2021/10/16 22:27:05;;;;;;;7.13;1.85;;;;;;;9.96;62.07;101829.88;10253902;28;20045;-71
2021/10/16 22:32:02;;;;;;;14.00;2.03;;;;;;;9.99;61.96;101810.16;10262590;28;20069;-71
2021/10/16 22:36:58;;;;;;;6.80;1.50;;;;;;;10.01;61.89;101818.09;10259166;28;20110;-71
2021/10/16 22:41:55;;;;;;;10.13;2.60;;;;;;;9.97;61.17;101809.63;10263732;28;20049;-69
2021/10/16 22:46:51;;;;;;;8.20;1.77;;;;;;;9.99;61.69;101806.63;10252271;28;20072;-70